createdAt,value
2022-10-28T00:01:03.633Z,9.43
2022-10-28T00:03:31.375Z,9.34
2022-10-28T00:06:04.745Z,9.42
2022-10-28T00:08:32.867Z,8.79
2022-10-28T00:11:05.966Z,9.32
2022-10-28T00:13:34.092Z,9.32
2022-10-28T00:16:07.049Z,9.30
2022-10-28T00:18:34.830Z,9.31
2022-10-28T00:21:06.397Z,9.32
2022-10-28T00:23:34.387Z,9.31
2022-10-28T00:26:07.464Z,9.37
2022-10-28T00:28:35.295Z,9.16
2022-10-28T00:31:07.489Z,8.99
2022-10-28T00:33:35.415Z,9.39
2022-10-28T00:36:13.385Z,9.44
2022-10-28T00:38:42.040Z,9.49
2022-10-28T00:41:10.802Z,9.40
2022-10-28T00:43:41.143Z,8.86
2022-10-28T00:46:17.798Z,9.54
2022-10-28T00:48:48.644Z,9.53
2022-10-28T00:51:19.990Z,9.51
2022-10-28T00:53:49.158Z,9.25
2022-10-28T00:56:18.254Z,9.45
2022-10-28T00:58:49.036Z,9.23
2022-10-28T01:01:16.969Z,9.36
2022-10-28T01:03:44.782Z,9.29
2022-10-28T01:06:12.658Z,9.29
2022-10-28T01:08:41.720Z,9.14
2022-10-28T01:11:31.599Z,9.15
2022-10-28T01:14:20.223Z,9.20
2022-10-28T01:17:01.731Z,9.18
2022-10-28T01:19:57.888Z,9.15
2022-10-28T01:22:29.177Z,9.12
2022-10-28T01:25:27.930Z,9.12
2022-10-28T01:28:10.117Z,8.44
2022-10-28T01:30:57.350Z,8.03
2022-10-28T01:33:30.676Z,8.95
2022-10-28T01:36:06.119Z,8.87
2022-10-28T01:38:40.700Z,8.86
2022-10-28T01:41:13.013Z,8.78
2022-10-28T01:43:49.867Z,8.73
2022-10-28T01:46:26.737Z,8.66
2022-10-28T01:48:58.261Z,8.64
2022-10-28T01:51:30.326Z,8.61
2022-10-28T01:54:02.194Z,8.56
2022-10-28T01:56:34.016Z,8.41
2022-10-28T01:59:04.273Z,8.52
2022-10-28T02:01:35.112Z,8.52
2022-10-28T02:04:03.365Z,8.54
2022-10-28T02:06:34.720Z,7.83
2022-10-28T02:09:11.026Z,8.27
2022-10-28T02:11:54.878Z,8.39
2022-10-28T02:14:39.158Z,8.38
2022-10-28T02:17:14.630Z,8.33
2022-10-28T02:19:50.400Z,8.31
2022-10-28T02:22:23.572Z,8.29
2022-10-28T02:25:01.394Z,8.24
2022-10-28T02:27:35.070Z,8.30
2022-10-28T02:30:06.925Z,8.04
2022-10-28T02:32:41.009Z,8.20
2022-10-28T02:35:13.155Z,8.23
2022-10-28T02:37:42.613Z,8.23
2022-10-28T02:40:16.208Z,8.22
2022-10-28T02:42:48.369Z,8.06
2022-10-28T02:45:19.259Z,8.18
2022-10-28T02:47:56.103Z,8.23
2022-10-28T02:50:31.380Z,8.18
2022-10-28T02:53:03.556Z,7.54
2022-10-28T02:55:39.231Z,8.14
2022-10-28T02:58:07.563Z,7.53
2022-10-28T03:00:35.204Z,8.15
2022-10-28T03:03:05.054Z,8.08
2022-10-28T03:05:32.738Z,7.87
2022-10-28T03:08:00.380Z,7.76
2022-10-28T03:10:28.016Z,7.62
2022-10-28T03:12:55.756Z,8.05
2022-10-28T03:15:23.423Z,8.02
2022-10-28T03:17:51.452Z,7.90
2022-10-28T03:20:20.794Z,7.99
2022-10-28T03:22:48.460Z,7.75
2022-10-28T03:25:16.257Z,7.99
2022-10-28T03:27:44.000Z,7.39
2022-10-28T03:30:12.226Z,7.94
2022-10-28T03:32:42.739Z,7.92
2022-10-28T03:35:10.691Z,7.93
2022-10-28T03:37:42.428Z,7.96
2022-10-28T03:40:11.130Z,7.94
2022-10-28T03:42:40.416Z,7.89
2022-10-28T03:45:09.332Z,7.88
2022-10-28T03:47:37.433Z,7.74
2022-10-28T03:50:05.370Z,7.84
2022-10-28T03:52:33.000Z,7.82
2022-10-28T03:55:02.088Z,7.80
2022-10-28T03:57:31.418Z,7.78
2022-10-28T03:59:59.114Z,7.06
2022-10-28T04:02:27.605Z,7.67
2022-10-28T04:04:55.366Z,7.75
2022-10-28T04:07:23.774Z,7.74
2022-10-28T04:09:51.500Z,7.71
2022-10-28T04:12:20.518Z,7.71
2022-10-28T04:14:50.289Z,7.60
2022-10-28T04:17:18.393Z,7.73
2022-10-28T04:19:46.052Z,7.68
2022-10-28T04:22:13.752Z,6.67
2022-10-28T04:24:41.420Z,7.62
2022-10-28T04:27:09.119Z,7.66
2022-10-28T04:29:38.159Z,7.60
2022-10-28T04:32:05.886Z,7.61
2022-10-28T04:34:33.553Z,7.57
2022-10-28T04:37:01.226Z,7.46
2022-10-28T04:39:28.853Z,7.59
2022-10-28T04:41:56.493Z,7.57
2022-10-28T04:44:24.306Z,7.52
2022-10-28T04:46:53.316Z,7.53
2022-10-28T04:49:20.977Z,6.61
2022-10-28T04:51:48.638Z,7.46
2022-10-28T04:54:16.445Z,7.46
2022-10-28T04:56:44.124Z,7.43
2022-10-28T04:59:11.964Z,7.46
2022-10-28T05:01:39.794Z,7.26
2022-10-28T05:04:09.178Z,7.32
2022-10-28T05:06:36.817Z,7.44
2022-10-28T05:09:04.858Z,7.32
2022-10-28T05:11:32.523Z,7.33
2022-10-28T05:14:00.234Z,7.27
2022-10-28T05:16:27.872Z,7.16
2022-10-28T05:18:55.617Z,7.31
2022-10-28T05:21:24.656Z,6.70
2022-10-28T05:23:52.367Z,6.82
2022-10-28T05:26:20.493Z,7.25
2022-10-28T05:28:51.078Z,7.28
2022-10-28T05:31:18.923Z,6.87
2022-10-28T05:33:46.639Z,7.30
2022-10-28T05:36:14.343Z,7.32
2022-10-28T05:38:45.332Z,7.25
2022-10-28T05:41:13.046Z,7.42
2022-10-28T05:43:40.713Z,7.30
2022-10-28T05:46:08.373Z,7.35
2022-10-28T05:48:37.130Z,6.87
2022-10-28T05:51:05.022Z,7.39
2022-10-28T05:53:32.780Z,6.85
2022-10-28T05:56:01.794Z,7.36
2022-10-28T05:58:29.497Z,7.40
2022-10-28T06:00:57.140Z,7.37
2022-10-28T06:03:30.067Z,6.90
2022-10-28T06:05:59.594Z,7.35
2022-10-28T06:08:27.378Z,7.20
2022-10-28T06:10:54.430Z,7.35
2022-10-28T06:13:23.734Z,7.57
2022-10-28T06:15:51.925Z,7.52
2022-10-28T06:18:19.781Z,7.31
2022-10-28T06:20:52.574Z,7.48
2022-10-28T06:23:20.241Z,7.59
2022-10-28T06:25:47.927Z,7.61
2022-10-28T06:28:15.817Z,7.66
2022-10-28T06:30:44.794Z,7.70
2022-10-28T06:33:12.432Z,7.57
2022-10-28T06:35:40.091Z,7.73
2022-10-28T06:38:09.538Z,7.81
2022-10-28T06:40:37.471Z,7.68
2022-10-28T06:43:06.780Z,7.85
2022-10-28T06:45:35.122Z,7.93
2022-10-28T06:48:07.532Z,7.98
2022-10-28T06:50:36.132Z,8.08
2022-10-28T06:53:04.257Z,8.16
2022-10-28T06:55:32.173Z,8.18
2022-10-28T06:58:01.220Z,8.02
2022-10-28T07:03:02.675Z,8.25
2022-10-28T07:05:31.900Z,8.20
2022-10-28T07:07:59.619Z,8.36
2022-10-28T07:10:27.352Z,8.43
2022-10-28T07:12:55.350Z,8.48
2022-10-28T07:15:23.477Z,8.54
2022-10-28T07:17:53.775Z,8.57
2022-10-28T07:20:21.551Z,8.58
2022-10-28T07:22:56.916Z,8.56
2022-10-28T07:25:24.647Z,8.53
2022-10-28T07:27:52.705Z,8.01
2022-10-28T07:30:20.618Z,8.94
2022-10-28T07:32:48.323Z,8.80
2022-10-28T07:35:16.087Z,9.20
2022-10-28T07:37:43.784Z,9.38
2022-10-28T07:40:13.304Z,9.55
2022-10-28T07:42:40.960Z,9.70
2022-10-28T07:45:09.239Z,9.86
2022-10-28T07:47:36.900Z,9.80
2022-10-28T07:50:05.704Z,10.22
2022-10-28T07:52:33.854Z,10.37
2022-10-28T07:55:01.517Z,10.66
2022-10-28T07:57:30.691Z,10.81
2022-10-28T07:59:58.435Z,10.92
2022-10-28T08:02:26.703Z,11.07
2022-10-28T08:04:55.871Z,11.13
2022-10-28T08:07:23.916Z,11.40
2022-10-28T08:09:53.225Z,11.56
2022-10-28T08:12:21.020Z,11.57
2022-10-28T08:14:50.152Z,12.03
2022-10-28T08:17:17.934Z,12.12
2022-10-28T08:19:45.592Z,12.33
2022-10-28T08:22:13.252Z,12.34
2022-10-28T08:24:40.886Z,11.95
2022-10-28T08:27:08.585Z,12.42
2022-10-28T08:29:36.255Z,12.29
2022-10-28T08:32:05.361Z,12.43
2022-10-28T08:34:33.077Z,12.62
2022-10-28T08:37:00.763Z,12.58
2022-10-28T08:39:28.490Z,12.79
2022-10-28T08:42:03.891Z,12.80
2022-10-28T08:45:01.495Z,12.94
2022-10-28T08:47:39.490Z,12.87
2022-10-28T08:50:14.511Z,13.08
2022-10-28T08:52:46.901Z,13.13
2022-10-28T08:55:18.142Z,13.16
2022-10-28T08:57:50.198Z,13.15
2022-10-28T09:00:21.918Z,13.07
2022-10-28T09:03:00.268Z,13.37
2022-10-28T09:05:28.573Z,13.42
2022-10-28T09:07:57.391Z,13.47
2022-10-28T09:11:06.673Z,13.05
2022-10-28T09:13:47.033Z,13.61
2022-10-28T09:16:23.129Z,13.53
2022-10-28T09:18:54.623Z,13.67
2022-10-28T09:21:30.573Z,13.69
2022-10-28T09:24:00.831Z,13.73
2022-10-28T09:26:38.509Z,13.79
2022-10-28T09:29:20.562Z,13.92
2022-10-28T09:31:51.128Z,14.16
2022-10-28T09:34:31.899Z,14.44
2022-10-28T09:37:05.608Z,14.74
2022-10-28T09:39:42.555Z,15.12
2022-10-28T09:42:17.814Z,15.32
2022-10-28T09:44:50.475Z,15.43
2022-10-28T09:47:22.518Z,15.68
2022-10-28T09:49:55.512Z,15.69
2022-10-28T09:52:26.082Z,15.88
2022-10-28T09:54:56.133Z,16.30
2022-10-28T09:57:30.460Z,16.47
2022-10-28T09:59:58.580Z,16.53
2022-10-28T10:02:29.597Z,16.64
2022-10-28T10:05:00.418Z,16.82
2022-10-28T10:07:35.780Z,17.12
2022-10-28T10:10:07.773Z,17.26
2022-10-28T10:12:35.555Z,17.39
2022-10-28T10:15:06.987Z,17.81
2022-10-28T10:17:40.325Z,17.87
2022-10-28T10:20:11.715Z,17.68
2022-10-28T10:22:41.122Z,18.48
2022-10-28T10:25:25.201Z,18.56
2022-10-28T10:27:55.255Z,18.55
2022-10-28T10:30:26.728Z,18.88
2022-10-28T10:32:54.513Z,18.97
2022-10-28T10:35:25.950Z,19.11
2022-10-28T10:37:56.895Z,19.22
2022-10-28T10:40:27.400Z,19.28
2022-10-28T10:43:13.125Z,19.33
2022-10-28T10:45:41.780Z,19.15
2022-10-28T10:48:14.921Z,18.99
2022-10-28T10:50:46.790Z,18.86
2022-10-28T10:53:24.646Z,18.64
2022-10-28T10:55:58.665Z,18.61
2022-10-28T10:58:29.321Z,18.51
2022-10-28T11:01:00.643Z,18.57
2022-10-28T11:03:34.696Z,18.43
2022-10-28T11:06:23.933Z,18.29
2022-10-28T11:08:58.319Z,18.21
2022-10-28T11:11:34.352Z,17.90
2022-10-28T11:14:08.557Z,18.69
2022-10-28T11:16:48.710Z,18.80
2022-10-28T11:19:22.695Z,18.90
2022-10-28T11:22:10.183Z,18.85
2022-10-28T11:24:56.589Z,18.84
2022-10-28T11:27:35.294Z,18.93
2022-10-28T11:30:03.312Z,18.53
2022-10-28T11:32:50.138Z,19.10
2022-10-28T11:35:43.805Z,19.14
2022-10-28T11:38:23.680Z,18.78
2022-10-28T11:41:05.144Z,19.29
2022-10-28T11:43:39.666Z,19.24
2022-10-28T11:46:14.606Z,18.85
2022-10-28T11:48:58.198Z,19.42
2022-10-28T11:51:38.846Z,19.05
2022-10-28T11:54:32.397Z,19.48
2022-10-28T11:57:04.891Z,19.56
2022-10-28T12:00:02.134Z,19.62
2022-10-28T12:02:54.763Z,19.65
2022-10-28T12:05:29.210Z,19.39
2022-10-28T12:08:23.013Z,19.83
2022-10-28T12:11:04.815Z,19.66
2022-10-28T12:13:41.244Z,19.81
2022-10-28T12:16:17.448Z,19.79
2022-10-28T12:18:53.348Z,19.91
2022-10-28T12:21:29.083Z,20.09
2022-10-28T12:23:59.310Z,19.41
2022-10-28T12:26:39.527Z,19.53
2022-10-28T12:29:14.456Z,19.95
2022-10-28T12:31:46.399Z,19.33
2022-10-28T12:34:17.597Z,19.90
2022-10-28T12:36:53.493Z,20.01
2022-10-28T12:39:24.238Z,19.37
2022-10-28T12:41:59.855Z,19.65
2022-10-28T12:44:29.465Z,20.08
2022-10-28T12:47:06.235Z,20.12
2022-10-28T12:49:45.732Z,20.25
2022-10-28T12:52:28.329Z,20.32
2022-10-28T12:55:02.287Z,20.32
2022-10-28T12:57:34.118Z,20.49
2022-10-28T13:00:07.532Z,20.28
2022-10-28T13:02:41.648Z,19.40
2022-10-28T13:05:20.557Z,19.83
2022-10-28T13:08:04.363Z,19.63
2022-10-28T13:10:40.000Z,19.17
2022-10-28T13:13:22.194Z,20.11
2022-10-28T13:16:09.131Z,20.10
2022-10-28T13:18:59.269Z,20.11
2022-10-28T13:21:54.053Z,20.14
2022-10-28T13:24:30.234Z,20.12
2022-10-28T13:26:58.754Z,19.76
2022-10-28T13:29:31.043Z,19.56
2022-10-28T13:31:58.988Z,20.52
2022-10-28T13:34:33.470Z,20.53
2022-10-28T13:37:04.280Z,20.38
2022-10-28T13:39:44.918Z,20.40
2022-10-28T13:42:33.140Z,20.30
2022-10-28T13:45:03.548Z,20.02
2022-10-28T13:47:32.962Z,20.19
2022-10-28T13:50:23.307Z,20.24
2022-10-28T13:53:29.639Z,20.13
2022-10-28T13:55:58.792Z,19.96
2022-10-28T13:58:27.508Z,19.84
2022-10-28T14:00:56.649Z,19.70
2022-10-28T14:03:26.779Z,19.57
2022-10-28T14:05:57.336Z,19.15
2022-10-28T14:08:29.573Z,19.45
2022-10-28T14:11:04.129Z,18.38
2022-10-28T14:13:35.361Z,19.24
2022-10-28T14:16:24.688Z,19.49
2022-10-28T14:18:56.162Z,19.46
2022-10-28T14:21:24.944Z,19.03
2022-10-28T14:24:31.943Z,19.38
2022-10-28T14:27:41.579Z,19.38
2022-10-28T14:30:15.881Z,19.28
2022-10-28T14:32:52.075Z,19.32
2022-10-28T14:35:30.153Z,19.26
2022-10-28T14:38:19.100Z,19.20
2022-10-28T14:40:51.467Z,18.37
2022-10-28T14:43:59.005Z,19.02
2022-10-28T14:46:41.407Z,18.98
2022-10-28T14:49:20.100Z,18.92
2022-10-28T14:51:50.820Z,18.78
2022-10-28T14:54:24.521Z,18.81
2022-10-28T14:56:55.990Z,18.73
2022-10-28T14:59:26.879Z,18.65
2022-10-28T15:02:05.276Z,18.59
2022-10-28T15:04:34.363Z,18.49
2022-10-28T15:07:02.159Z,18.44
2022-10-28T15:09:31.487Z,18.34
2022-10-28T15:12:02.311Z,18.15
2022-10-28T15:14:36.710Z,17.40
2022-10-28T15:17:13.259Z,18.00
2022-10-28T15:19:43.242Z,18.06
2022-10-28T15:22:17.161Z,17.98
2022-10-28T15:24:57.511Z,17.93
2022-10-28T15:27:27.088Z,17.86
2022-10-28T15:29:55.808Z,17.28
2022-10-28T15:32:29.434Z,17.59
2022-10-28T15:34:59.057Z,17.66
2022-10-28T15:37:29.633Z,17.41
2022-10-28T15:40:22.012Z,17.53
2022-10-28T15:42:57.461Z,17.47
2022-10-28T15:45:27.082Z,17.38
2022-10-28T15:47:56.577Z,17.31
2022-10-28T15:50:32.032Z,17.19
2022-10-28T15:53:23.103Z,17.17
2022-10-28T15:56:10.296Z,17.06
2022-10-28T15:58:40.324Z,16.97
2022-10-28T16:01:11.206Z,16.82
2022-10-28T16:03:44.243Z,16.83
2022-10-28T16:06:26.759Z,16.29
2022-10-28T16:09:07.352Z,16.66
2022-10-28T16:11:39.305Z,16.59
2022-10-28T16:14:24.604Z,16.54
2022-10-28T16:16:56.901Z,16.42
2022-10-28T16:19:29.995Z,16.29
2022-10-28T16:21:59.111Z,15.69
2022-10-28T16:24:26.928Z,16.23
2022-10-28T16:26:54.760Z,15.16
2022-10-28T16:29:22.513Z,15.58
2022-10-28T16:31:52.504Z,16.13
2022-10-28T16:34:20.188Z,16.10
2022-10-28T16:36:47.849Z,16.06
2022-10-28T16:39:21.951Z,16.02
2022-10-28T16:41:58.595Z,15.71
2022-10-28T16:44:28.015Z,15.98
2022-10-28T16:46:58.685Z,15.97
2022-10-28T16:49:26.403Z,15.61
2022-10-28T16:52:06.881Z,15.81
2022-10-28T16:54:35.919Z,15.63
2022-10-28T16:57:03.806Z,15.82
2022-10-28T16:59:31.655Z,14.77
2022-10-28T17:01:59.599Z,14.89
2022-10-28T17:04:27.461Z,14.93
2022-10-28T17:06:55.161Z,15.42
2022-10-28T17:09:22.906Z,15.19
2022-10-28T17:11:53.971Z,14.81
2022-10-28T17:14:21.689Z,14.53
2022-10-28T17:16:49.408Z,15.30
2022-10-28T17:19:17.260Z,15.19
2022-10-28T17:21:44.960Z,14.37
2022-10-28T17:24:13.909Z,14.89
2022-10-28T17:26:43.865Z,14.94
2022-10-28T17:29:13.066Z,14.87
2022-10-28T17:31:40.815Z,14.60
2022-10-28T17:34:08.499Z,14.54
2022-10-28T17:36:36.144Z,14.69
2022-10-28T17:39:04.016Z,14.35
2022-10-28T17:41:31.736Z,13.77
2022-10-28T17:43:59.631Z,14.62
2022-10-28T17:46:28.692Z,14.09
2022-10-28T17:48:56.438Z,14.02
2022-10-28T17:51:26.220Z,14.47
2022-10-28T17:53:54.806Z,14.47
2022-10-28T17:56:22.671Z,14.47
2022-10-28T17:58:53.360Z,14.44
2022-10-28T18:01:21.404Z,14.44
2022-10-28T18:03:51.581Z,14.33
2022-10-28T18:06:19.241Z,14.36
2022-10-28T18:08:47.046Z,14.45
2022-10-28T18:11:16.761Z,14.44
2022-10-28T18:13:47.560Z,13.90
2022-10-28T18:16:17.228Z,14.41
2022-10-28T18:18:45.124Z,14.33
2022-10-28T18:21:15.023Z,13.90
2022-10-28T18:23:43.025Z,13.78
2022-10-28T18:26:12.662Z,14.30
2022-10-28T18:28:41.699Z,14.21
2022-10-28T18:31:12.209Z,14.30
2022-10-28T18:33:40.266Z,14.26
2022-10-28T18:36:11.203Z,14.24
2022-10-28T18:38:40.457Z,14.22
2022-10-28T18:41:11.605Z,14.12
2022-10-28T18:43:39.501Z,14.02
2022-10-28T18:46:07.722Z,14.07
2022-10-28T18:48:35.868Z,14.15
2022-10-28T18:51:06.618Z,14.13
2022-10-28T18:53:36.570Z,14.14
2022-10-28T18:56:07.452Z,14.14
2022-10-28T18:58:35.207Z,14.08
2022-10-28T19:01:08.071Z,14.18
2022-10-28T19:03:36.321Z,14.05
2022-10-28T19:06:05.857Z,14.07
2022-10-28T19:08:33.914Z,13.85
2022-10-28T19:11:02.752Z,14.09
2022-10-28T19:13:33.757Z,14.04
2022-10-28T19:16:01.598Z,14.02
2022-10-28T19:18:29.368Z,13.46
2022-10-28T19:21:04.130Z,14.03
2022-10-28T19:23:32.653Z,14.02
2022-10-28T19:26:01.174Z,13.47
2022-10-28T19:28:31.476Z,13.92
2022-10-28T19:31:03.687Z,14.30
2022-10-28T19:33:32.345Z,14.37
2022-10-28T19:36:05.036Z,14.44
2022-10-28T19:38:34.579Z,14.24
2022-10-28T19:41:03.576Z,14.29
2022-10-28T19:43:33.030Z,14.29
2022-10-28T19:46:10.198Z,14.30
2022-10-28T19:48:38.853Z,14.30
2022-10-28T19:51:07.337Z,14.25
2022-10-28T19:53:35.512Z,14.11
2022-10-28T19:56:04.942Z,14.20
2022-10-28T19:58:34.783Z,14.02
2022-10-28T20:01:04.319Z,14.15
2022-10-28T20:03:34.621Z,14.15
2022-10-28T20:06:06.587Z,14.18
2022-10-28T20:08:36.305Z,14.17
2022-10-28T20:11:05.878Z,14.20
2022-10-28T20:13:35.929Z,14.24
2022-10-28T20:16:05.513Z,14.29
2022-10-28T20:18:34.504Z,14.38
2022-10-28T20:21:06.668Z,14.38
2022-10-28T20:23:35.671Z,14.29
2022-10-28T20:26:05.477Z,13.97
2022-10-28T20:28:33.512Z,14.23
2022-10-28T20:31:04.373Z,14.19
2022-10-28T20:33:32.557Z,13.65
2022-10-28T20:36:00.572Z,14.03
2022-10-28T20:38:29.403Z,13.99
2022-10-28T20:40:58.660Z,13.95
2022-10-28T20:43:28.896Z,13.84
2022-10-28T20:45:58.681Z,13.92
2022-10-28T20:48:29.087Z,13.87
2022-10-28T20:50:58.368Z,13.86
2022-10-28T20:53:27.488Z,13.75
2022-10-28T20:55:56.543Z,13.82
2022-10-28T20:58:26.015Z,13.82
2022-10-28T21:00:54.040Z,13.85
2022-10-28T21:03:22.614Z,13.57
2022-10-28T21:05:51.610Z,13.71
2022-10-28T21:08:19.250Z,13.74
2022-10-28T21:10:46.947Z,13.53
2022-10-28T21:13:14.577Z,13.62
2022-10-28T21:15:44.897Z,13.58
2022-10-28T21:18:13.546Z,13.45
2022-10-28T21:20:41.471Z,13.34
2022-10-28T21:23:11.526Z,13.37
2022-10-28T21:25:39.902Z,13.38
2022-10-28T21:28:07.585Z,13.30
2022-10-28T21:30:35.217Z,13.34
2022-10-28T21:33:03.699Z,13.30
2022-10-28T21:35:31.347Z,13.25
2022-10-28T21:37:59.071Z,13.22
2022-10-28T21:40:28.159Z,13.30
2022-10-28T21:42:55.858Z,13.13
2022-10-28T21:45:24.174Z,12.69
2022-10-28T21:47:55.152Z,12.40
2022-10-28T21:50:23.068Z,13.17
2022-10-28T21:52:50.778Z,13.26
2022-10-28T21:55:20.845Z,13.11
2022-10-28T21:57:56.197Z,12.36
2022-10-28T22:00:24.145Z,12.95
2022-10-28T22:02:52.097Z,12.85
2022-10-28T22:05:19.858Z,12.90
2022-10-28T22:07:47.537Z,12.78
2022-10-28T22:10:15.225Z,12.77
2022-10-28T22:12:42.887Z,12.67
2022-10-28T22:15:12.037Z,12.68
2022-10-28T22:17:40.313Z,12.73
2022-10-28T22:20:09.753Z,12.62
2022-10-28T22:22:37.654Z,12.54
2022-10-28T22:25:09.349Z,12.32
2022-10-28T22:27:38.285Z,12.35
2022-10-28T22:30:06.551Z,12.23
2022-10-28T22:32:35.605Z,12.39
2022-10-28T22:35:03.412Z,11.81
2022-10-28T22:37:32.452Z,12.07
2022-10-28T22:40:00.099Z,12.14
2022-10-28T22:42:27.796Z,12.09
2022-10-28T22:44:55.435Z,12.07
2022-10-28T22:47:23.214Z,12.06
2022-10-28T22:49:52.347Z,11.62
2022-10-28T22:52:20.159Z,10.92
2022-10-28T22:54:47.870Z,11.36
2022-10-28T22:57:15.607Z,11.89
2022-10-28T22:59:43.319Z,11.84
2022-10-28T23:02:11.193Z,11.11
2022-10-28T23:04:39.022Z,11.77
2022-10-28T23:07:08.003Z,11.76
2022-10-28T23:09:35.726Z,11.67
2022-10-28T23:12:03.418Z,10.92
2022-10-28T23:14:31.127Z,11.51
2022-10-28T23:16:59.618Z,10.89
2022-10-28T23:19:27.327Z,11.53
2022-10-28T23:21:54.981Z,11.56
2022-10-28T23:24:24.097Z,11.53
2022-10-28T23:26:51.843Z,11.49
2022-10-28T23:29:19.510Z,11.46
2022-10-28T23:31:47.156Z,11.39
2022-10-28T23:34:14.791Z,11.40
2022-10-28T23:36:42.440Z,10.81
2022-10-28T23:39:10.245Z,11.30
2022-10-28T23:41:39.266Z,11.29
2022-10-28T23:44:06.932Z,11.27
2022-10-28T23:46:37.385Z,11.23
2022-10-28T23:49:05.486Z,11.22
2022-10-28T23:51:33.149Z,11.24
2022-10-28T23:54:00.986Z,11.36
2022-10-28T23:56:28.660Z,11.36
2022-10-28T23:58:57.762Z,11.25
